createdAt,value
2023-01-13T00:02:57.661Z,99055.38
2023-01-13T00:08:00.130Z,99097.19
2023-01-13T00:13:04.615Z,99050.59
2023-01-13T00:18:07.094Z,99012.78
2023-01-13T00:23:09.540Z,99044.31
2023-01-13T00:28:11.973Z,99002.59
2023-01-13T00:33:14.470Z,98947.69
2023-01-13T00:38:16.781Z,98977.41
2023-01-13T00:43:25.137Z,98950.66
2023-01-13T00:48:30.926Z,98982.88
2023-01-13T00:53:43.566Z,98977.38
2023-01-13T00:58:47.597Z,98987.75
2023-01-13T01:03:55.176Z,98928.56
2023-01-13T01:08:57.871Z,99000.00
2023-01-13T01:14:03.038Z,99001.94
2023-01-13T01:19:05.556Z,99016.44
2023-01-13T01:24:08.297Z,98973.81
2023-01-13T01:29:15.513Z,98991.63
2023-01-13T01:34:17.997Z,99015.25
2023-01-13T01:39:20.423Z,99042.94
2023-01-13T01:45:10.382Z,99019.22
2023-01-13T01:50:13.029Z,98998.63
2023-01-13T01:55:31.238Z,98991.63
2023-01-13T02:00:34.095Z,98941.63
2023-01-13T02:05:36.933Z,98922.97
2023-01-13T02:10:42.128Z,99007.78
2023-01-13T02:15:51.459Z,98943.81
2023-01-13T02:21:03.112Z,98977.91
2023-01-13T02:26:22.168Z,98971.25
2023-01-13T02:31:43.161Z,98925.44
2023-01-13T02:36:58.665Z,98917.88
2023-01-13T02:42:23.980Z,98901.22
2023-01-13T02:47:28.142Z,98931.97
2023-01-13T02:52:53.109Z,98914.91
2023-01-13T02:57:56.959Z,98920.88
2023-01-13T03:02:59.440Z,98883.38
2023-01-13T03:08:07.117Z,98891.66
2023-01-13T03:13:41.839Z,98922.41
2023-01-13T03:18:53.634Z,98897.47
2023-01-13T03:24:10.156Z,98875.34
2023-01-13T03:29:20.175Z,98876.59
2023-01-13T03:34:30.313Z,98828.00
2023-01-13T03:39:40.370Z,98890.75
2023-01-13T03:45:02.203Z,98870.28
2023-01-13T03:50:20.247Z,98918.81
2023-01-13T03:55:36.207Z,98912.97
2023-01-13T04:00:58.653Z,98908.53
2023-01-13T04:06:21.988Z,98926.13
2023-01-13T04:11:39.070Z,98903.97
2023-01-13T04:16:42.166Z,98843.38
2023-01-13T04:21:44.615Z,98831.50
2023-01-13T04:26:46.775Z,98922.34
2023-01-13T04:31:49.293Z,98896.34
2023-01-13T04:36:51.645Z,98864.53
2023-01-13T04:42:00.085Z,98890.16
2023-01-13T04:47:03.284Z,98933.91
2023-01-13T04:52:07.095Z,98881.75
2023-01-13T04:57:09.383Z,98876.59
2023-01-13T05:02:15.268Z,98924.31
2023-01-13T05:07:18.472Z,98927.06
2023-01-13T05:12:39.096Z,98934.56
2023-01-13T05:17:41.455Z,98794.41
2023-01-13T05:23:02.364Z,98872.44
2023-01-13T05:28:04.818Z,98870.34
2023-01-13T05:33:06.928Z,98897.66
2023-01-13T05:38:10.007Z,98879.88
2023-01-13T05:43:22.160Z,98894.53
2023-01-13T05:48:37.480Z,98848.00
2023-01-13T05:53:42.992Z,98878.00
2023-01-13T05:58:45.140Z,98835.34
2023-01-13T06:03:47.449Z,98829.66
2023-01-13T06:08:49.692Z,98763.88
2023-01-13T06:13:52.224Z,98818.81
2023-01-13T06:18:54.789Z,98857.84
2023-01-13T06:23:57.249Z,98878.16
2023-01-13T06:28:59.568Z,98830.00
2023-01-13T06:34:11.750Z,98789.38
2023-01-13T06:39:18.917Z,98832.56
2023-01-13T06:44:22.927Z,98839.44
2023-01-13T06:49:25.246Z,98902.19
2023-01-13T06:54:27.885Z,98820.25
2023-01-13T06:59:30.337Z,98863.31
2023-01-13T07:04:32.650Z,98810.13
2023-01-13T07:09:35.036Z,98864.19
2023-01-13T07:14:55.915Z,98876.88
2023-01-13T07:19:58.216Z,98844.47
2023-01-13T07:25:00.509Z,98913.88
2023-01-13T07:30:04.194Z,98864.31
2023-01-13T07:35:07.229Z,98919.44
2023-01-13T07:40:12.782Z,98861.81
2023-01-13T07:45:15.164Z,98921.13
2023-01-13T07:50:17.435Z,98940.91
2023-01-13T07:55:19.578Z,98854.88
2023-01-13T08:00:22.504Z,98869.66
2023-01-13T08:05:24.665Z,98919.25
2023-01-13T08:10:26.795Z,98848.91
2023-01-13T08:15:29.990Z,98881.41
2023-01-13T08:20:32.118Z,98872.00
2023-01-13T08:25:34.633Z,98941.63
2023-01-13T08:30:36.941Z,98888.13
2023-01-13T08:35:41.657Z,98926.47
2023-01-13T08:40:43.977Z,98942.81
2023-01-13T08:45:46.163Z,98955.34
2023-01-13T08:50:48.512Z,98943.84
2023-01-13T08:55:50.882Z,98948.34
2023-01-13T09:00:53.049Z,98999.94
2023-01-13T09:05:55.252Z,98949.44
2023-01-13T09:10:58.099Z,98956.28
2023-01-13T09:16:00.325Z,98952.03
2023-01-13T09:21:02.547Z,98959.72
2023-01-13T09:26:05.060Z,99003.81
2023-01-13T09:31:07.474Z,98983.31
2023-01-13T09:36:09.899Z,99040.56
2023-01-13T09:41:43.819Z,98932.47
2023-01-13T09:46:59.217Z,98954.16
2023-01-13T09:52:19.614Z,99016.50
2023-01-13T09:57:22.140Z,99040.28
2023-01-13T10:02:27.392Z,98966.00
2023-01-13T10:07:34.475Z,99046.53
2023-01-13T10:12:55.470Z,99000.66
2023-01-13T10:18:13.501Z,99073.50
2023-01-13T10:23:34.482Z,99066.88
2023-01-13T10:28:36.646Z,99015.75
2023-01-13T10:33:38.792Z,99039.97
2023-01-13T10:38:47.203Z,99095.28
2023-01-13T10:43:52.441Z,99150.88
2023-01-13T10:49:00.820Z,99114.41
2023-01-13T10:54:13.220Z,99118.81
2023-01-13T10:59:23.954Z,99160.53
2023-01-13T11:04:37.982Z,99193.19
2023-01-13T11:09:40.289Z,99125.34
2023-01-13T11:14:45.912Z,99155.34
2023-01-13T11:19:58.202Z,99113.50
2023-01-13T11:25:07.048Z,99160.53
2023-01-13T11:30:39.025Z,99120.66
2023-01-13T11:35:58.887Z,99107.44
2023-01-13T11:41:15.141Z,99129.13
2023-01-13T11:46:17.425Z,99142.66
2023-01-13T11:51:54.883Z,99138.28
2023-01-13T11:57:36.259Z,99214.75
2023-01-13T12:02:57.866Z,99195.97
2023-01-13T12:08:19.232Z,99196.94
2023-01-13T12:13:54.829Z,99126.41
2023-01-13T12:19:30.053Z,99161.59
2023-01-13T12:25:06.995Z,99168.63
2023-01-13T12:30:24.218Z,99144.31
2023-01-13T12:35:40.133Z,99181.94
2023-01-13T12:41:20.521Z,99180.41
2023-01-13T12:46:22.705Z,99241.06
2023-01-13T12:51:57.992Z,99174.47
2023-01-13T12:57:00.860Z,99147.63
2023-01-13T13:02:12.743Z,99127.44
2023-01-13T13:07:33.819Z,99132.25
2023-01-13T13:13:00.637Z,99150.31
2023-01-13T13:18:32.882Z,99176.09
2023-01-13T13:23:48.037Z,99170.25
2023-01-13T13:29:20.741Z,99079.91
2023-01-13T13:34:33.520Z,99090.81
2023-01-13T13:39:54.663Z,99080.19
2023-01-13T13:45:16.815Z,99131.06
2023-01-13T13:50:21.328Z,99043.78
2023-01-13T13:55:28.416Z,99056.72
2023-01-13T14:00:35.688Z,99074.78
2023-01-13T14:05:38.418Z,99096.88
2023-01-13T14:10:45.075Z,99162.25
2023-01-13T14:15:56.592Z,99142.19
2023-01-13T14:21:17.466Z,99177.16
2023-01-13T14:26:32.317Z,99183.34
2023-01-13T14:31:35.129Z,99173.38
2023-01-13T14:36:39.518Z,99138.72
2023-01-13T14:41:50.694Z,99222.56
2023-01-13T14:46:56.709Z,99196.28
2023-01-13T14:52:20.502Z,99213.88
2023-01-13T14:57:29.678Z,99250.44
2023-01-13T15:02:34.019Z,99165.00
2023-01-13T15:07:37.029Z,99197.81
2023-01-13T15:12:41.074Z,99221.03
2023-01-13T15:17:43.418Z,99189.78
2023-01-13T15:22:46.765Z,99195.88
2023-01-13T15:27:52.912Z,99195.44
2023-01-13T15:32:59.068Z,99230.03
2023-01-13T15:38:01.303Z,99200.13
2023-01-13T15:43:22.044Z,99213.75
2023-01-13T15:48:25.837Z,99240.00
2023-01-13T15:53:28.494Z,99259.28
2023-01-13T15:58:31.968Z,99218.16
2023-01-13T16:03:34.465Z,99242.06
2023-01-13T16:08:36.624Z,99210.72
2023-01-13T16:13:39.282Z,99257.63
2023-01-13T16:18:41.567Z,99262.91
2023-01-13T16:23:43.845Z,99248.78
2023-01-13T16:28:46.281Z,99247.69
2023-01-13T16:33:48.690Z,99260.38
2023-01-13T16:38:53.558Z,99291.56
2023-01-13T16:43:55.877Z,99299.63
2023-01-13T16:49:04.539Z,99300.06
2023-01-13T16:54:07.417Z,99335.09
2023-01-13T16:59:17.139Z,99351.41
2023-01-13T17:04:23.578Z,99381.03
2023-01-13T17:09:28.841Z,99358.50
2023-01-13T17:14:31.122Z,99382.47
2023-01-13T17:19:33.392Z,99380.34
2023-01-13T17:24:37.749Z,99343.31
2023-01-13T17:29:40.388Z,99425.00
2023-01-13T17:34:44.040Z,99433.72
2023-01-13T17:39:48.661Z,99400.88
2023-01-13T17:44:50.925Z,99448.38
2023-01-13T17:49:53.112Z,99451.56
2023-01-13T17:54:55.491Z,99428.38
2023-01-13T17:59:59.616Z,99437.91
2023-01-13T18:05:01.979Z,99411.47
2023-01-13T18:10:04.571Z,99441.16
2023-01-13T18:15:07.804Z,99449.59
2023-01-13T18:20:37.329Z,99486.38
2023-01-13T18:25:59.366Z,99468.38
2023-01-13T18:31:01.592Z,99481.84
2023-01-13T18:36:08.538Z,99474.50
2023-01-13T18:41:30.865Z,99495.97
2023-01-13T18:46:33.193Z,99509.22
2023-01-13T18:51:35.524Z,99468.56
2023-01-13T18:56:38.009Z,99506.94
2023-01-13T19:01:40.456Z,99464.22
2023-01-13T19:06:49.178Z,99520.59
2023-01-13T19:11:53.039Z,99495.03
2023-01-13T19:16:55.162Z,99490.22
2023-01-13T19:21:57.541Z,99534.28
2023-01-13T19:26:59.903Z,99547.63
2023-01-13T19:32:02.335Z,99540.25
2023-01-13T19:37:06.741Z,99529.03
2023-01-13T19:42:29.738Z,99534.06
2023-01-13T19:47:32.436Z,99567.63
2023-01-13T19:52:35.269Z,99557.59
2023-01-13T19:57:39.370Z,99584.53
2023-01-13T20:02:48.032Z,99544.78
2023-01-13T20:07:51.588Z,99550.50
2023-01-13T20:12:53.921Z,99586.09
2023-01-13T20:17:58.004Z,99595.19
2023-01-13T20:23:00.377Z,99585.50
2023-01-13T20:28:07.033Z,99654.69
2023-01-13T20:33:09.325Z,99627.16
2023-01-13T20:38:12.234Z,99628.19
2023-01-13T20:43:15.216Z,99629.13
2023-01-13T20:48:18.299Z,99618.47
2023-01-13T20:53:20.505Z,99602.16
2023-01-13T20:58:22.610Z,99673.78
2023-01-13T21:03:24.721Z,99642.56
2023-01-13T21:08:26.853Z,99675.47
2023-01-13T21:13:47.581Z,99610.16
2023-01-13T21:19:07.798Z,99617.00
2023-01-13T21:24:09.911Z,99619.97
2023-01-13T21:29:12.234Z,99649.19
2023-01-13T21:34:14.575Z,99660.84
2023-01-13T21:39:16.981Z,99624.44
2023-01-13T21:44:39.503Z,99587.88
2023-01-13T21:49:44.536Z,99632.63
2023-01-13T21:55:05.276Z,99649.09
2023-01-13T22:00:08.605Z,99610.38
2023-01-13T22:05:13.161Z,99628.06
2023-01-13T22:10:19.569Z,99642.13
2023-01-13T22:15:25.857Z,99610.81
2023-01-13T22:20:28.347Z,99623.84
2023-01-13T22:25:30.832Z,99620.41
2023-01-13T22:30:33.402Z,99592.22
2023-01-13T22:35:35.773Z,99672.03
2023-01-13T22:40:38.053Z,99659.72
2023-01-13T22:45:40.342Z,99644.28
2023-01-13T22:50:42.470Z,99608.53
2023-01-13T22:55:52.918Z,99648.28
2023-01-13T23:00:56.210Z,99605.34
2023-01-13T23:05:59.634Z,99674.56
2023-01-13T23:11:05.587Z,99659.16
2023-01-13T23:16:15.534Z,99644.97
2023-01-13T23:21:26.417Z,99658.34
2023-01-13T23:26:30.845Z,99626.13
2023-01-13T23:31:33.805Z,99659.72
2023-01-13T23:36:41.066Z,99648.28
2023-01-13T23:41:43.395Z,99570.63
2023-01-13T23:46:45.614Z,99599.66
2023-01-13T23:51:51.699Z,99611.97
2023-01-13T23:56:53.999Z,99671.00
